x

Gulf Of Maine - 78 Nm East Of Portsmouth, Nh (44005) Wave Buoy

12:50pm - Tue 9th Feb 2016 All times are EST. -5 hours from GMT.

  • Sig Wave height 11.2ft
  • Peak Period 12s
  • Average Period 9s
  • Wind
    13mph, 20mph gusts
  • Sea Temp 43°f
  • 空気 Temp 28°f
  • Sea Pressure 1002.2mb
  • Gulf Of Maine - 78 Nm East Of Portsmouth, Nh
  • Gulf Of Maine - 78 Nm East Of Portsmouth, Nh

More Historic Weather Station data

Upgrade to MSW Pro to gain access to the past 30 days of data for over 8000 Wavebouys and Weather Stations around the globe.

Join Pro

Comparision Forecast

View Surf forecast
   
Tue 02/09 12:50pm 11ft 12s 9s 13 20 mph 1002.2mb 43f 28f
11:50am 13.5ft 12s 9s 11 16 mph 1003.1mb 43f 29f
10:50am 12.5ft 12s 9s 11 16 mph 1004.1mb 43f 28f
9:50am 13ft 13s 9s 11 16 mph 1004.6mb 43f 28f
8:50am 11ft 14s 8s 9 16 mph 1005.4mb 43f 28f
7:50am 12.5ft 15s 9s 18 22 mph 1003.2mb 43f 29f
6:50am 12ft 15s 8s 11 16 mph 1005mb 43f 28f
5:50am 12ft 16s 8s 11 20 mph 1005.4mb 43f 28f
4:50am 13.5ft 15s 8s 18 25 mph 1005mb 43f 27f
3:50am 14ft 14s 8s 20 25 mph 1005mb 43f 27f
2:50am 15ft 11s 8s 25 31 mph 1004.8mb 43f 27f
1:50am 15.5ft 11s 8s 29 34 mph 1005.1mb 43f 26f
12:50am 16.5ft 11s 8s 29 38 mph 1005.2mb 43f 26f
Mon 02/08 11:50pm 15.5ft 11s 8s 31 38 mph 1005mb 43f 26f
10:50pm 16ft 11s 8s 31 40 mph 1004.4mb 43f 26f
9:50pm 16ft 11s 8s 31 38 mph 1004.8mb 43f 27f
8:50pm 15ft 11s 7s 31 38 mph 1004.5mb 44f 27f
7:50pm 17.5ft 10s 8s 22 29 mph 1004.3mb 44f 28f
6:50pm 16.5ft 11s 7s 36 43 mph 1003.2mb 44f 29f
5:50pm 20ft 10s 8s 38 47 mph 1002.4mb 44f 29f
4:50pm 20.5ft 10s 8s 38 49 mph 1001.9mb 44f 29f
3:50pm 18ft 8s 7s 38 47 mph 1002mb 44f 29f
2:50pm 19.5ft 10s 8s 38 47 mph 1003.4mb 43f 28f
1:50pm 16.5ft 10s 7s 38 49 mph 1004.3mb 43f 28f
12:50pm 17.5ft 10s 7s 38 45 mph 1005mb 43f 28f
11:50am 15.5ft 9s 7s 36 43 mph 1006.9mb 43f 29f
10:50am 16.5ft 9s 7s 36 43 mph 1006.9mb 43f 30f
9:50am 17.5ft 9s 8s 36 45 mph 1008.3mb 43f 33f
8:50am 16ft 9s 7s 36 45 mph 1008.6mb 43f 32f
7:50am 16ft 8s 7s 34 43 mph 1009.6mb 44f 33f
6:50am 15ft 8s 7s 38 45 mph 1011mb 43f 33f
5:50am 12ft 8s 6s 38 47 mph 1010.9mb 43f 31f
4:50am 11.5ft 8s 6s 36 43 mph 1012.5mb 43f 32f
3:50am 11ft 8s 6s 34 40 mph 1014.7mb 43f 32f
2:50am 10ft 7s 6s 34 40 mph 1014.9mb 43f 33f
1:50am 9.5ft 7s 6s 31 38 mph 1016.5mb 44f 33f
12:50am 8.5ft 6s 5s 31 38 mph 1017.4mb 43f 35f
Sun 02/07 11:50pm 6ft 6s 5s 29 36 mph 1018.3mb 44f 36f
10:50pm 4.5ft 4s 4s 29 34 mph 1018.8mb 44f 37f
9:50pm 3.5ft 4s 4s 25 29 mph 1019.2mb 44f 39f
8:50pm 3ft 4s 4s 20 22 mph 1020.2mb 44f 39f
7:50pm 2.5ft 11s 4s 20 22 mph 1020.2mb 44f 40f
6:50pm 2.5ft 10s 4s 16 20 mph 1021.1mb 44f 40f
5:50pm 2.5ft 11s 5s 13 16 mph 1020.9mb 44f 40f
4:50pm 2.5ft 11s 5s 11 13 mph 1020.5mb 44f 40f
3:50pm 3ft 10s 5s 9 11 mph 1020.9mb 44f 41f
2:50pm 3.5ft 5s 5s 9 13 mph 1021.1mb 44f 41f
1:50pm 3.5ft 6s 5s 13 16 mph 1020mb 44f 41f
12:50pm 4ft 6s 5s 16 18 mph 1020.1mb 44f 41f
11:50am 4ft 5s 5s 13 16 mph 1019.7mb 44f 40f
10:50am 4.5ft 6s 5s 16 18 mph 1020.3mb 44f 40f
9:50am 4.5ft 6s 5s 18 22 mph 1019.8mb 44f 41f
8:50am 5ft 5s 4s 20 25 mph 1019.7mb 43f 41f
7:50am 5ft 6s 5s 22 29 mph 1019.7mb 43f 41f
6:50am 5ft 6s 5s 20 25 mph 1019.2mb 43f 41f
5:50am 6ft 6s 5s 20 25 mph 1019.3mb 44f 41f
4:50am 6ft 6s 5s 22 27 mph 1019.4mb 43f 40f
3:50am 6ft 6s 5s 22 27 mph 1019.3mb 43f 40f
2:50am 6ft 6s 5s 25 29 mph 1019.4mb 43f 41f
1:50am 5.5ft 5s 5s 22 25 mph 1020.4mb 43f 40f
12:50am 6ft 6s 5s 22 25 mph 1020.9mb 43f 39f
Sat 02/06 11:50pm 6ft 6s 5s 25 29 mph 1021.5mb 43f 39f
10:50pm 5ft 6s 5s 22 29 mph 1022.1mb 43f 39f
9:50pm 5ft 6s 5s 25 29 mph 1022.3mb 43f 38f
8:50pm 5ft 6s 4s 22 27 mph 1022.9mb 43f 38f
7:50pm 5ft 5s 4s 25 27 mph 1023.1mb 43f 38f
6:50pm 5ft 6s 4s 22 27 mph 1023.5mb 43f 38f
5:50pm 4.5ft 5s 4s 22 29 mph 1023.6mb 44f 38f
4:50pm 4.5ft 5s 4s 22 27 mph 1023.9mb 43f 38f
3:50pm 4.5ft 10s 4s 22 27 mph 1024.1mb 43f 37f
2:50pm 3.5ft 10s 4s 22 29 mph 1024.5mb 43f 37f
1:50pm 4ft 11s 5s 20 25 mph 1024.7mb 43f 36f
12:50pm 3.5ft 10s 5s 20 25 mph 1025mb 43f 35f
11:50am 3.5ft 11s 6s 16 20 mph 1025.9mb 43f 35f
10:50am 3.5ft 11s 6s 11 16 mph 1026.7mb 43f 35f
9:50am 4ft 11s 6s 7 9 mph 1026.9mb 43f 34f
8:50am 4.5ft 11s 6s 9 11 mph 1026.8mb 43f 33f
7:50am 5ft 5s 5s 11 16 mph 1026.2mb 43f 33f
6:50am 5ft 5s 5s 13 18 mph 1025.5mb 43f 32f
5:50am 6ft 8s 5s 16 20 mph 1025.1mb 43f 32f
4:50am 6ft 6s 5s 20 25 mph 1024.2mb 43f 32f
3:50am 6ft 5s 5s 20 25 mph 1023.5mb 43f 31f
2:50am 7ft 6s 5s 25 31 mph 1022.9mb 43f 30f
1:50am 7.5ft 6s 5s 25 31 mph 1022.3mb 43f 30f
12:50am 8ft 6s 5s 27 31 mph 1021.6mb 43f 29f
Fri 02/05 11:50pm 8.5ft 7s 5s 27 31 mph 1020mb 43f 30f
10:50pm 9ft 6s 5s 27 34 mph 1018.9mb 43f 31f
9:50pm 9ft 6s 6s 27 34 mph 1017.2mb 43f 33f
8:50pm 11ft 8s 6s 29 34 mph 1016.4mb 43f 33f
7:50pm 13.5ft 7s 6s 34 43 mph 1015.3mb 43f 31f